Time;durP1;ratioP1;P1;durP2;ratioP2;P2;SDS_P1;SDS_P2;PMS_P1;PMS_P2;Temp;Humidity;BMP_temperature;BMP_pressure;BME280_temperature;BME280_humidity;BME280_pressure;Samples;Min_cycle;Max_cycle;Signal;HPM_P1;HPM_P2
2022/07/02 00:00:50;;;;;;;41.47;39.23;;;;;;;14.32;100.00;97372.44;5074470;28;20197;-62
2022/07/02 00:03:23;;;;;;;35.90;33.93;;;;;;;14.33;100.00;97376.66;5074513;28;20329;-62
2022/07/02 00:05:55;;;;;;;46.20;43.67;;;;;;;14.25;100.00;97380.47;5074188;28;20165;-62
2022/07/02 00:08:24;;;;;;;46.90;44.17;;;;;;;14.29;100.00;97380.81;5073572;28;20177;-62
2022/07/02 00:10:52;;;;;;;49.67;46.93;;;;;;;14.19;100.00;97375.34;5065815;28;20205;-62
2022/07/02 00:13:19;;;;;;;49.37;46.63;;;;;;;14.22;100.00;97372.22;5053453;28;20162;-62
2022/07/02 00:15:45;;;;;;;53.63;50.70;;;;;;;14.14;100.00;97371.59;5068390;28;20755;-62
2022/07/02 00:18:11;;;;;;;43.60;40.90;;;;;;;14.21;100.00;97366.16;5073598;28;20165;-62
2022/07/02 00:20:38;;;;;;;37.37;35.27;;;;;;;14.32;100.00;97370.56;5073010;28;20216;-62
2022/07/02 00:23:04;;;;;;;29.47;27.83;;;;;;;14.46;100.00;97376.41;5073312;28;20695;-62
2022/07/02 00:25:38;;;;;;;21.33;20.00;;;;;;;14.55;100.00;97380.25;5073162;28;20209;-61
2022/07/02 00:28:05;;;;;;;22.70;21.37;;;;;;;14.12;100.00;97380.75;5073296;28;20185;-62
2022/07/02 00:30:32;;;;;;;19.53;18.43;;;;;;;14.14;100.00;97376.84;5072961;28;20205;-62
2022/07/02 00:32:59;;;;;;;18.37;17.37;;;;;;;14.08;100.00;97377.78;5073165;28;20218;-62
2022/07/02 00:35:24;;;;;;;17.93;17.03;;;;;;;14.08;100.00;97371.72;5072858;28;20225;-62
2022/07/02 00:37:52;;;;;;;15.77;14.87;;;;;;;14.02;100.00;97377.91;5071099;28;20594;-62
2022/07/02 00:40:18;;;;;;;17.60;16.63;;;;;;;14.23;100.00;97377.28;5072163;28;20259;-62
2022/07/02 00:42:45;;;;;;;16.03;15.10;;;;;;;14.28;100.00;97380.00;5072983;28;20165;-61
2022/07/02 00:45:10;;;;;;;17.83;16.83;;;;;;;14.29;100.00;97375.53;5072950;28;20189;-61
2022/07/02 00:47:37;;;;;;;17.63;16.73;;;;;;;14.36;100.00;97376.19;5073088;28;20171;-61
2022/07/02 00:50:05;;;;;;;18.40;17.40;;;;;;;14.30;100.00;97380.56;5072103;28;20273;-61
2022/07/02 00:52:30;;;;;;;18.57;17.57;;;;;;;14.32;100.00;97377.72;5072813;28;20165;-61
2022/07/02 00:54:56;;;;;;;18.47;17.37;;;;;;;14.30;100.00;97382.41;5072570;28;20192;-61
2022/07/02 00:57:21;;;;;;;18.03;17.03;;;;;;;14.27;100.00;97374.94;5072242;28;20219;-61
2022/07/02 00:59:47;;;;;;;17.07;16.17;;;;;;;14.28;100.00;97384.47;5072548;28;20433;-61
2022/07/02 01:02:15;;;;;;;18.10;17.10;;;;;;;14.25;100.00;97382.31;5072262;28;20200;-61
2022/07/02 01:04:41;;;;;;;17.90;17.00;;;;;;;14.22;100.00;97374.84;5072306;28;20212;-61
2022/07/02 01:07:10;;;;;;;17.60;16.70;;;;;;;14.23;100.00;97372.00;5072636;28;20169;-61
2022/07/02 01:12:33;;;;;;;20.23;19.13;;;;;;;14.17;100.00;97378.19;5052912;28;20181;-61
2022/07/02 01:14:59;;;;;;;19.50;18.50;;;;;;;14.15;100.00;97372.38;5052306;28;20635;-61
2022/07/02 01:17:25;;;;;;;19.97;18.77;;;;;;;14.20;100.00;97372.47;5052535;28;20162;-61
2022/07/02 01:19:50;;;;;;;19.40;18.30;;;;;;;14.35;100.00;97366.69;5065514;28;20292;-61
2022/07/02 01:22:52;;;;;;;19.00;17.77;;;;;;;14.47;100.00;97370.09;5072253;28;20189;-61
2022/07/02 01:25:18;;;;;;;19.83;18.53;;;;;;;14.51;100.00;97364.09;5016933;28;20306;-60
2022/07/02 01:27:43;;;;;;;24.47;23.07;;;;;;;14.44;100.00;97366.09;5072540;28;20622;-61
2022/07/02 01:30:09;;;;;;;23.37;22.17;;;;;;;14.35;100.00;97361.41;5071928;28;20215;-61
2022/07/02 01:32:35;;;;;;;23.20;21.67;;;;;;;14.36;100.00;97363.00;5072221;28;20625;-61
2022/07/02 01:35:05;;;;;;;22.30;21.10;;;;;;;14.31;100.00;97361.09;5071809;28;20260;-61
2022/07/02 01:37:31;;;;;;;21.87;20.67;;;;;;;14.22;100.00;97361.69;5072157;28;20185;-61
2022/07/02 01:39:58;;;;;;;24.47;23.17;;;;;;;14.14;100.00;97360.22;5051986;28;20350;-61
2022/07/02 01:42:23;;;;;;;23.30;22.00;;;;;;;14.31;100.00;97361.09;5072106;28;20194;-61
2022/07/02 01:44:49;;;;;;;22.07;20.87;;;;;;;14.32;100.00;97359.25;5072263;28;20334;-61
2022/07/02 01:47:14;;;;;;;18.27;17.27;;;;;;;14.22;100.00;97359.84;5072052;28;20711;-61
2022/07/02 01:49:40;;;;;;;19.13;17.93;;;;;;;14.19;100.00;97360.31;5071486;28;20261;-61
2022/07/02 01:52:06;;;;;;;20.10;19.00;;;;;;;14.26;100.00;97360.19;5056023;28;20200;-61
2022/07/02 01:54:33;;;;;;;21.20;19.93;;;;;;;14.18;100.00;97357.91;5075610;28;20177;-61
2022/07/02 01:57:00;;;;;;;24.27;22.93;;;;;;;14.16;100.00;97356.31;5075892;28;20207;-61
2022/07/02 01:59:25;;;;;;;26.07;24.53;;;;;;;14.09;100.00;97355.66;5076259;28;20161;-61
2022/07/02 02:01:50;;;;;;;28.23;26.63;;;;;;;14.05;100.00;97362.41;5075904;28;20203;-61
2022/07/02 02:04:16;;;;;;;28.70;27.00;;;;;;;14.06;100.00;97361.41;5075367;28;20228;-61
2022/07/02 02:06:42;;;;;;;28.07;26.50;;;;;;;14.00;100.00;97364.97;5075935;28;20169;-58
2022/07/02 02:09:07;;;;;;;27.87;26.27;;;;;;;13.95;100.00;97358.78;5075727;28;20223;-63
2022/07/02 02:11:33;;;;;;;31.63;29.63;;;;;;;13.99;100.00;97362.56;5058556;28;20208;-62
2022/07/02 02:13:59;;;;;;;32.33;30.30;;;;;;;14.05;100.00;97364.25;5065826;28;20220;-63
2022/07/02 02:16:25;;;;;;;33.97;32.00;;;;;;;13.79;100.00;97364.78;5075728;28;20166;-62
2022/07/02 02:18:51;;;;;;;32.03;30.17;;;;;;;13.76;100.00;97362.63;5075943;28;20170;-63
2022/07/02 02:21:17;;;;;;;30.80;28.87;;;;;;;13.75;100.00;97361.81;5075577;28;20697;-64
2022/07/02 02:23:42;;;;;;;32.27;30.30;;;;;;;13.74;100.00;97361.03;5075134;28;20196;-59
2022/07/02 02:26:08;;;;;;;30.77;28.67;;;;;;;13.83;100.00;97361.44;5075610;28;20238;-63
2022/07/02 02:28:33;;;;;;;31.03;29.07;;;;;;;13.81;100.00;97360.91;5075323;28;20204;-61
2022/07/02 02:30:59;;;;;;;33.83;31.53;;;;;;;13.73;100.00;97362.06;5075068;28;20238;-61
2022/07/02 02:33:24;;;;;;;33.83;31.83;;;;;;;13.68;100.00;97359.31;5075100;28;20165;-63
2022/07/02 02:35:49;;;;;;;36.83;34.63;;;;;;;13.58;100.00;97356.47;5057248;28;20215;-62
2022/07/02 02:38:15;;;;;;;40.50;38.20;;;;;;;13.67;100.00;97360.34;5073011;28;20637;-64
2022/07/02 02:40:40;;;;;;;41.60;39.10;;;;;;;13.63;100.00;97358.41;5075603;28;20251;-63
2022/07/02 02:43:05;;;;;;;44.30;41.77;;;;;;;13.67;100.00;97356.91;5074825;28;20169;-62
2022/07/02 02:45:31;;;;;;;43.80;41.10;;;;;;;13.68;100.00;97355.88;5075212;28;20201;-64
2022/07/02 02:47:56;;;;;;;50.47;47.60;;;;;;;13.65;100.00;97357.13;5074848;28;20185;-64
2022/07/02 02:50:22;;;;;;;47.83;45.00;;;;;;;13.54;100.00;97357.16;5056951;28;20673;-64
2022/07/02 02:52:47;;;;;;;50.77;47.87;;;;;;;13.49;100.00;97357.84;5075283;28;20165;-64
2022/07/02 02:55:13;;;;;;;50.47;47.57;;;;;;;13.51;100.00;97361.06;5074955;28;20696;-62
2022/07/02 02:57:38;;;;;;;46.27;43.57;;;;;;;13.55;100.00;97358.75;5074877;28;20173;-64
2022/07/02 03:00:04;;;;;;;50.27;47.27;;;;;;;13.47;100.00;97349.38;5074659;28;20626;-63
2022/07/02 03:02:29;;;;;;;50.30;47.50;;;;;;;13.44;100.00;97362.19;5074386;28;20165;-63
2022/07/02 03:04:55;;;;;;;50.40;47.53;;;;;;;13.39;100.00;97357.63;5056479;28;20549;-63
2022/07/02 03:07:20;;;;;;;47.97;45.27;;;;;;;13.39;100.00;97359.44;5074979;28;20169;-63
2022/07/02 03:09:46;;;;;;;47.03;44.37;;;;;;;13.32;100.00;97362.19;5074440;28;20220;-62
2022/07/02 03:12:11;;;;;;;44.17;41.47;;;;;;;13.21;100.00;97361.16;5074972;28;20215;-63
2022/07/02 03:14:37;;;;;;;47.27;44.40;;;;;;;13.19;100.00;97354.53;5074604;28;20564;-62
2022/07/02 03:17:02;;;;;;;44.67;41.90;;;;;;;13.25;100.00;97358.91;5074762;28;20216;-63
2022/07/02 03:19:28;;;;;;;48.57;45.57;;;;;;;13.21;100.00;97358.53;5074663;28;20260;-63
2022/07/02 03:21:53;;;;;;;51.10;47.83;;;;;;;13.44;100.00;97360.34;5074579;28;20587;-62
2022/07/02 03:24:19;;;;;;;55.83;52.50;;;;;;;13.42;100.00;97366.91;5056268;28;20219;-63
2022/07/02 03:26:44;;;;;;;60.77;57.27;;;;;;;13.25;100.00;97367.59;5074446;28;20177;-63
2022/07/02 03:29:09;;;;;;;62.03;58.10;;;;;;;13.27;100.00;97365.50;5074640;28;20183;-63
2022/07/02 03:31:35;;;;;;;68.37;64.40;;;;;;;13.38;100.00;97366.53;5074327;28;20205;-63
2022/07/02 03:34:00;;;;;;;68.47;64.57;;;;;;;13.43;100.00;97365.88;5074012;28;20170;-62
2022/07/02 03:36:26;;;;;;;49.30;46.37;;;;;;;13.55;100.00;97367.44;5074484;28;20208;-63
2022/07/02 03:38:51;;;;;;;45.67;42.93;;;;;;;13.67;100.00;97373.50;5071463;28;20267;-63
2022/07/02 03:41:17;;;;;;;45.10;42.37;;;;;;;14.05;100.00;97367.69;5074380;28;20280;-63
2022/07/02 03:43:42;;;;;;;47.47;44.67;;;;;;;14.23;100.00;97372.00;5073775;28;20300;-63
2022/07/02 03:46:08;;;;;;;27.63;25.93;;;;;;;14.32;100.00;97369.81;5074355;28;20158;-63
2022/07/02 03:48:33;;;;;;;40.37;37.97;;;;;;;14.53;100.00;97377.06;5073361;28;20172;-61
2022/07/02 03:50:58;;;;;;;38.60;36.50;;;;;;;14.74;100.00;97381.66;5073904;28;20709;-60
2022/07/02 03:53:24;;;;;;;59.73;56.50;;;;;;;14.91;100.00;97379.84;5073794;28;20169;-60
2022/07/02 03:55:49;;;;;;;41.00;38.77;;;;;;;15.07;100.00;97378.25;5073987;28;20173;-61
2022/07/02 03:58:15;;;;;;;31.07;29.17;;;;;;;15.38;100.00;97382.94;5073668;28;20641;-60
2022/07/02 04:00:40;;;;;;;39.97;37.70;;;;;;;15.52;100.00;97380.00;5073803;28;20207;-61
2022/07/02 04:03:06;;;;;;;33.17;31.33;;;;;;;15.69;100.00;97383.41;5073685;28;20170;-61
2022/07/02 04:05:32;;;;;;;30.77;29.00;;;;;;;15.93;99.98;97389.28;5073576;28;20185;-61
2022/07/02 04:07:57;;;;;;;55.43;52.33;;;;;;;16.13;98.97;97382.38;5073799;28;20173;-61
2022/07/02 04:10:23;;;;;;;50.10;47.37;;;;;;;16.43;96.22;97381.13;5062471;28;20570;-60
2022/07/02 04:12:48;;;;;;;114.47;108.40;;;;;;;16.84;94.05;97380.47;5062240;28;20172;-61
2022/07/02 04:15:14;;;;;;;128.57;121.60;;;;;;;16.72;93.45;97381.72;5054735;28;20662;-61
2022/07/02 04:17:39;;;;;;;117.83;111.63;;;;;;;16.30;94.39;97384.16;5073511;28;20680;-61
2022/07/02 04:20:05;;;;;;;105.70;100.10;;;;;;;16.61;92.62;97386.09;5073026;28;20187;-61
2022/07/02 04:22:31;;;;;;;108.53;102.60;;;;;;;17.02;90.92;97384.59;5073123;28;20252;-61
2022/07/02 04:24:56;;;;;;;95.30;90.07;;;;;;;17.08;91.38;97388.09;5073280;28;20235;-61
2022/07/02 04:27:21;;;;;;;126.93;120.15;;;;;;;17.22;89.38;97374.16;5073349;28;20626;-61
2022/07/02 04:29:47;;;;;;;158.82;150.57;;;;;;;17.10;89.11;97391.31;5073529;28;20545;-61
2022/07/02 04:32:13;;;;;;;180.27;170.73;;;;;;;16.95;90.41;97391.97;5055072;28;20217;-61
2022/07/02 04:34:38;;;;;;;241.70;228.23;;;;;;;17.69;85.82;97392.00;5072987;28;20177;-60
2022/07/02 04:37:04;;;;;;;212.60;201.02;;;;;;;17.47;86.84;97392.09;5072945;28;20268;-56
2022/07/02 04:39:29;;;;;;;173.32;164.00;;;;;;;17.56;85.29;97381.81;5070760;28;20225;-60
2022/07/02 04:41:57;;;;;;;130.00;122.85;;;;;;;18.34;81.61;97388.81;5072803;28;20658;-60
2022/07/02 04:44:24;;;;;;;127.57;120.53;;;;;;;18.37;81.59;97392.81;5064231;28;20600;-60
2022/07/02 04:46:49;;;;;;;104.88;99.10;;;;;;;18.65;80.38;97392.41;5072943;28;20244;-60
2022/07/02 04:49:15;;;;;;;104.57;98.43;;;;;;;18.92;78.65;97392.97;5072143;28;20208;-57
2022/07/02 04:51:40;;;;;;;114.28;107.85;;;;;;;17.60;84.13;97391.69;5072488;28;20193;-60
2022/07/02 04:54:06;;;;;;;111.07;104.85;;;;;;;18.37;80.70;97390.16;5072426;28;20170;-59
2022/07/02 04:56:31;;;;;;;131.75;124.22;;;;;;;18.75;79.08;97392.41;5072259;28;20599;-59
2022/07/02 04:58:57;;;;;;;133.27;125.82;;;;;;;18.58;78.63;97389.19;5072579;28;20165;-60
2022/07/02 05:01:25;;;;;;;123.82;116.78;;;;;;;18.87;77.74;97386.84;5072529;28;20197;-58
2022/07/02 05:03:51;;;;;;;126.70;119.63;;;;;;;18.82;78.03;97389.50;5072146;28;20288;-59
2022/07/02 05:06:18;;;;;;;125.03;118.18;;;;;;;19.23;75.91;97387.63;5072442;28;20245;-60
2022/07/02 05:08:43;;;;;;;112.82;106.38;;;;;;;19.50;74.64;97390.84;5072260;28;20233;-61
2022/07/02 05:11:09;;;;;;;107.97;102.00;;;;;;;19.76;73.75;97391.59;5071867;28;20197;-61
2022/07/02 05:13:34;;;;;;;91.38;86.35;;;;;;;19.89;73.49;97396.34;5072341;28;20256;-60
2022/07/02 05:16:00;;;;;;;77.53;73.30;;;;;;;20.15;71.37;97394.38;5072291;28;20634;-60
2022/07/02 05:18:26;;;;;;;136.43;129.38;;;;;;;20.25;70.20;97395.13;5072800;28;20165;-62
2022/07/02 05:20:51;;;;;;;103.45;98.15;;;;;;;20.15;70.87;97397.06;5072219;28;20280;-63
2022/07/02 05:23:16;;;;;;;71.72;67.93;;;;;;;20.15;71.57;97395.19;5072157;28;20605;-64
2022/07/02 05:25:42;;;;;;;97.40;92.30;;;;;;;19.41;72.83;97403.06;5072063;28;20259;-61
2022/07/02 05:28:07;;;;;;;91.07;86.20;;;;;;;20.03;72.03;97394.69;5072182;28;20630;-60
2022/07/02 05:30:33;;;;;;;61.90;58.55;;;;;;;19.62;72.68;97399.31;5072334;28;20288;-60
2022/07/02 05:32:58;;;;;;;57.35;53.95;;;;;;;19.55;72.82;97401.47;5071939;28;20640;-60
2022/07/02 05:35:24;;;;;;;57.45;54.35;;;;;;;19.71;72.67;97402.25;5072166;28;20256;-60
2022/07/02 05:37:49;;;;;;;70.25;66.35;;;;;;;19.72;73.58;97407.31;5069914;28;20196;-58
2022/07/02 05:40:15;;;;;;;66.60;62.95;;;;;;;19.92;72.68;97407.25;5071867;28;20653;-61
2022/07/02 05:42:40;;;;;;;60.38;57.03;;;;;;;19.97;71.73;97406.44;5072175;28;20180;-61
2022/07/02 05:45:06;;;;;;;59.10;56.05;;;;;;;20.11;70.99;97404.78;5072070;28;20243;-61
2022/07/02 05:47:31;;;;;;;52.25;49.15;;;;;;;20.61;68.92;97397.66;5072002;28;20196;-61
2022/07/02 05:49:57;;;;;;;58.45;55.30;;;;;;;20.16;69.96;97407.44;5072287;28;20180;-61
2022/07/02 05:52:22;;;;;;;59.85;56.67;;;;;;;19.89;71.49;97407.00;5053887;28;20688;-61
2022/07/02 05:54:48;;;;;;;53.08;50.28;;;;;;;19.31;74.55;97411.03;5072389;28;20168;-60
2022/07/02 05:57:13;;;;;;;52.00;49.17;;;;;;;20.14;70.98;97400.78;5071838;28;20181;-61
2022/07/02 05:59:39;;;;;;;49.78;46.90;;;;;;;19.50;73.19;97409.47;5071824;28;20178;-61
2022/07/02 06:02:05;;;;;;;54.47;51.25;;;;;;;19.37;75.08;97407.31;5072274;28;20251;-61
2022/07/02 06:04:32;;;;;;;54.08;50.90;;;;;;;19.30;75.33;97410.25;5072128;28;20261;-61
2022/07/02 06:09:44;;;;;;;54.13;51.22;;;;;;;19.63;73.78;97414.22;5071622;28;20736;-61
2022/07/02 06:12:10;;;;;;;53.30;50.50;;;;;;;20.15;71.15;97413.03;5072220;28;20201;-61
2022/07/02 06:14:38;;;;;;;58.25;55.05;;;;;;;20.71;69.15;97406.38;5072209;28;20169;-61
2022/07/02 06:17:04;;;;;;;110.93;105.28;;;;;;;19.91;70.79;97412.81;5072067;28;20188;-61
2022/07/02 06:19:29;;;;;;;124.97;118.82;;;;;;;20.27;69.33;97408.19;5070719;28;20200;-61
2022/07/02 06:21:55;;;;;;;96.72;91.70;;;;;;;20.43;69.26;97411.59;5071936;28;20208;-61
2022/07/02 06:24:20;;;;;;;146.38;139.13;;;;;;;20.43;69.02;97412.41;5071672;28;20218;-63
2022/07/02 06:26:46;;;;;;;138.63;131.80;;;;;;;20.95;67.81;97411.03;5071751;28;20204;-63
2022/07/02 06:29:11;;;;;;;139.70;132.77;;;;;;;21.30;66.54;97409.97;5071521;28;20346;-63
2022/07/02 06:31:37;;;;;;;142.38;135.10;;;;;;;19.77;72.47;97409.94;5071668;28;20570;-62
2022/07/02 06:34:03;;;;;;;148.95;141.52;;;;;;;20.45;69.28;97407.56;5071676;28;20177;-61
2022/07/02 06:36:29;;;;;;;131.20;124.78;;;;;;;20.63;69.47;97406.94;5071418;28;20177;-62
2022/07/02 06:38:54;;;;;;;143.10;135.85;;;;;;;20.88;67.78;97410.53;5072945;28;20291;-64
2022/07/02 06:44:05;;;;;;;106.55;101.07;;;;;;;20.80;67.20;97405.78;5075145;28;20335;-63
2022/07/02 06:46:32;;;;;;;138.15;131.38;;;;;;;20.18;69.77;97409.81;5074645;28;20231;-63
2022/07/02 06:48:57;;;;;;;90.13;85.32;;;;;;;19.11;74.91;97407.31;5074802;28;20181;-66
2022/07/02 06:51:22;;;;;;;54.53;51.60;;;;;;;19.88;72.97;97402.75;5075423;28;20200;-62
2022/07/02 06:53:48;;;;;;;102.78;97.47;;;;;;;19.95;70.28;97410.44;5074986;28;20172;-62
2022/07/02 06:56:13;;;;;;;56.72;53.30;;;;;;;20.07;71.13;97406.38;5074943;28;20165;-59
2022/07/02 06:58:39;;;;;;;86.85;82.15;;;;;;;20.50;69.00;97393.47;5075168;28;20177;-61
2022/07/02 07:01:04;;;;;;;143.68;136.18;;;;;;;20.54;68.27;97402.50;5075319;28;20197;-62
2022/07/02 07:03:30;;;;;;;87.35;82.82;;;;;;;20.04;68.24;97406.16;5074881;28;20157;-58
2022/07/02 07:05:55;;;;;;;137.63;130.60;;;;;;;20.68;67.74;97395.47;5074811;28;20173;-63
2022/07/02 07:08:20;;;;;;;137.02;130.13;;;;;;;21.19;66.24;97405.81;5074607;28;20231;-61
2022/07/02 07:10:46;;;;;;;105.70;100.40;;;;;;;20.94;66.44;97396.91;5074182;28;20206;-59
2022/07/02 07:13:11;;;;;;;99.70;94.45;;;;;;;20.44;67.89;97407.88;5074540;28;20173;-61
2022/07/02 07:15:37;;;;;;;80.13;75.82;;;;;;;21.30;64.69;97402.78;5074676;28;20165;-61
2022/07/02 07:18:02;;;;;;;87.38;82.97;;;;;;;21.69;63.82;97405.34;5074575;28;20176;-60
2022/07/02 07:20:29;;;;;;;72.32;68.53;;;;;;;21.17;64.07;97410.63;5074523;28;20209;-60
2022/07/02 07:22:56;;;;;;;68.50;64.95;;;;;;;20.81;65.99;97402.84;5074778;28;20614;-61
2022/07/02 07:25:22;;;;;;;69.75;66.22;;;;;;;21.51;64.18;97398.06;5074529;28;20209;-61
2022/07/02 07:27:48;;;;;;;68.25;64.60;;;;;;;21.18;64.36;97402.34;5074474;28;20166;-61
2022/07/02 07:30:14;;;;;;;64.40;61.15;;;;;;;21.30;64.30;97407.31;5074952;28;20596;-61
2022/07/02 07:32:39;;;;;;;56.95;54.00;;;;;;;19.89;67.78;97404.34;5074533;28;20180;-62
2022/07/02 07:35:05;;;;;;;51.05;48.50;;;;;;;19.94;67.44;97406.97;5074494;28;20223;-61
2022/07/02 07:37:30;;;;;;;64.70;61.50;;;;;;;21.20;63.83;97397.53;5074464;28;20184;-61
2022/07/02 07:39:56;;;;;;;60.17;57.08;;;;;;;21.61;61.07;97395.31;5071994;28;20272;-62
2022/07/02 07:42:22;;;;;;;51.97;49.35;;;;;;;20.79;62.85;97393.56;5074309;28;20690;-60
2022/07/02 07:44:49;;;;;;;40.33;38.30;;;;;;;20.96;62.84;97393.94;5073916;28;20598;-61
2022/07/02 07:47:15;;;;;;;47.75;45.10;;;;;;;20.94;63.04;97402.25;5073969;28;20169;-61
2022/07/02 07:49:41;;;;;;;46.78;44.22;;;;;;;21.02;62.96;97392.84;5073193;28;20223;-61
2022/07/02 07:52:06;;;;;;;48.20;45.80;;;;;;;21.48;60.43;97396.75;5074137;28;20205;-61
2022/07/02 07:54:32;;;;;;;44.42;42.20;;;;;;;21.63;60.48;97387.78;5074414;28;20189;-60
2022/07/02 07:56:57;;;;;;;60.40;57.33;;;;;;;21.73;58.87;97387.72;5073969;28;20580;-61
2022/07/02 07:59:23;;;;;;;102.03;96.93;;;;;;;21.64;58.65;97389.38;5074124;28;20514;-62
2022/07/02 08:01:48;;;;;;;67.45;64.00;;;;;;;21.31;58.38;97391.03;5073653;28;20197;-60
2022/07/02 08:04:13;;;;;;;46.47;44.13;;;;;;;21.62;57.32;97388.91;5073704;28;20186;-61
2022/07/02 08:06:39;;;;;;;43.70;41.53;;;;;;;21.98;56.79;97382.09;5073817;28;20257;-60
2022/07/02 08:09:04;;;;;;;71.00;67.38;;;;;;;21.82;56.77;97383.34;5072868;28;20188;-61
2022/07/02 08:11:30;;;;;;;59.47;56.42;;;;;;;21.61;57.20;97381.16;5073613;28;20192;-60
2022/07/02 08:13:55;;;;;;;55.97;53.17;;;;;;;21.11;58.66;97377.84;5074162;28;20206;-61
2022/07/02 08:16:21;;;;;;;64.75;61.55;;;;;;;21.08;58.63;97367.72;5073832;28;20169;-60
2022/07/02 08:18:46;;;;;;;45.90;43.58;;;;;;;20.35;60.53;97373.00;5073317;28;20176;-60
2022/07/02 08:21:13;;;;;;;149.00;141.95;;;;;;;20.72;60.93;97378.69;5073563;28;20636;-60
2022/07/02 08:23:46;;;;;;;38.58;36.58;;;;;;;20.90;61.47;97373.75;5073424;28;20162;-62
2022/07/02 08:26:11;;;;;;;41.22;39.08;;;;;;;21.57;59.68;97372.91;5073370;28;20270;-61
2022/07/02 08:28:36;;;;;;;72.05;68.38;;;;;;;21.71;57.87;97368.50;5073209;28;20189;-61
2022/07/02 08:31:02;;;;;;;56.72;53.92;;;;;;;21.41;57.28;97369.59;5073280;28;20197;-61
2022/07/02 08:33:27;;;;;;;48.08;45.58;;;;;;;22.08;56.73;97369.72;5073314;28;20525;-65
2022/07/02 08:35:53;;;;;;;73.90;70.22;;;;;;;21.43;56.90;97366.66;5072936;28;20178;-64
2022/07/02 08:38:18;;;;;;;76.40;72.63;;;;;;;22.12;56.69;97363.53;5070592;28;20319;-61
2022/07/02 08:40:48;;;;;;;88.38;83.97;;;;;;;22.46;54.64;97357.97;5072834;28;20323;-61
2022/07/02 08:43:14;;;;;;;139.63;132.82;;;;;;;22.08;55.15;97362.50;5072758;28;20161;-61
2022/07/02 08:45:42;;;;;;;134.65;128.10;;;;;;;22.25;55.21;97365.47;5072756;28;20189;-60
2022/07/02 08:48:12;;;;;;;138.63;131.90;;;;;;;22.53;54.22;97361.09;5072631;28;20221;-61
2022/07/02 08:50:39;;;;;;;128.93;122.35;;;;;;;22.37;53.03;97360.53;5072848;28;20281;-61
2022/07/02 08:53:06;;;;;;;333.95;315.98;;;;;;;21.41;52.96;97350.13;5072840;28;20177;-61
2022/07/02 08:55:34;;;;;;;123.35;117.03;;;;;;;21.89;53.12;97345.63;5054625;28;20248;-61
2022/07/02 08:58:01;;;;;;;74.53;70.60;;;;;;;22.03;53.25;97341.19;5059674;28;20165;-61
2022/07/02 09:00:27;;;;;;;375.65;355.95;;;;;;;21.85;52.41;97337.38;5072644;28;20204;-61
2022/07/02 09:02:55;;;;;;;137.80;131.07;;;;;;;21.72;53.52;97339.94;5072947;28;20188;-60
2022/07/02 09:05:21;;;;;;;389.95;369.73;;;;;;;21.56;51.80;97336.66;5073222;28;20278;-61
2022/07/02 09:07:47;;;;;;;402.60;380.95;;;;;;;21.47;52.63;97352.47;5072523;28;20630;-60
2022/07/02 09:10:17;;;;;;;329.23;312.00;;;;;;;21.65;52.57;97340.28;5072577;28;20200;-55
2022/07/02 09:12:42;;;;;;;276.17;262.02;;;;;;;21.69;51.36;97333.28;5073334;28;20169;-60
2022/07/02 09:15:10;;;;;;;358.92;340.17;;;;;;;22.21;51.04;97318.28;5072972;28;20166;-58
2022/07/02 09:17:36;;;;;;;196.63;186.18;;;;;;;21.66;49.86;97319.75;5072642;28;20173;-57
2022/07/02 09:20:03;;;;;;;213.90;202.93;;;;;;;22.22;50.01;97317.19;5072724;28;20208;-60
2022/07/02 09:22:39;;;;;;;172.20;163.35;;;;;;;22.18;49.85;97310.84;5072689;28;20169;-61
2022/07/02 09:25:16;;;;;;;221.27;210.20;;;;;;;22.04;49.25;97310.75;5072719;28;20201;-62
2022/07/02 09:27:44;;;;;;;179.48;170.43;;;;;;;22.31;49.58;97310.91;5073882;28;20157;-61
2022/07/02 09:30:12;;;;;;;184.30;175.32;;;;;;;22.29;49.43;97313.06;5072829;28;20192;-61
2022/07/02 09:32:46;;;;;;;136.93;129.98;;;;;;;22.54;49.45;97313.81;5072500;28;20189;-61
2022/07/02 09:35:17;;;;;;;141.05;133.85;;;;;;;22.61;50.18;97323.03;5072049;28;20169;-63
2022/07/02 09:37:43;;;;;;;347.95;330.33;;;;;;;22.35;48.81;97322.59;5071182;28;20185;-63
2022/07/02 09:40:09;;;;;;;523.35;494.50;;;;;;;22.04;49.76;97324.09;5070726;28;20201;-61
2022/07/02 09:42:35;;;;;;;532.47;502.83;;;;;;;22.40;48.60;97319.84;5071698;28;20686;-60
2022/07/02 09:45:03;;;;;;;573.83;540.63;;;;;;;22.11;48.51;97326.44;5071243;28;20212;-61
2022/07/02 09:47:49;;;;;;;558.80;527.17;;;;;;;22.07;49.04;97328.84;5072259;28;20268;-56
2022/07/02 09:50:16;;;;;;;502.30;473.98;;;;;;;21.29;48.79;97328.41;5053559;28;20245;-60
2022/07/02 09:52:55;;;;;;;445.63;420.77;;;;;;;21.82;48.14;97327.28;5072229;28;20169;-59
2022/07/02 09:55:30;;;;;;;560.50;530.45;;;;;;;21.89;47.33;97335.75;5070832;28;20166;-59
2022/07/02 09:58:01;;;;;;;370.60;349.77;;;;;;;21.98;48.07;97325.25;5071647;28;20169;-55
2022/07/02 10:00:32;;;;;;;369.00;348.15;;;;;;;21.84;47.42;97335.00;5072464;28;20204;-59
2022/07/02 10:02:59;;;;;;;369.20;349.00;;;;;;;21.69;46.55;97332.50;5071638;28;20604;-58
2022/07/02 10:05:27;;;;;;;542.90;513.75;;;;;;;21.60;48.23;97326.19;5072034;28;20264;-58
2022/07/02 10:07:57;;;;;;;459.48;434.77;;;;;;;21.92;47.50;97323.69;5069732;28;20222;-60
2022/07/02 10:10:34;;;;;;;321.38;303.45;;;;;;;22.02;47.93;97328.94;5076292;28;20287;-65
2022/07/02 10:12:59;;;;;;;370.45;349.98;;;;;;;21.97;48.00;97312.97;5082761;28;20248;-60
2022/07/02 10:15:29;;;;;;;555.70;524.58;;;;;;;21.99;49.72;97316.16;5074722;28;20252;-61
2022/07/02 10:17:56;;;;;;;567.80;536.42;;;;;;;21.92;49.57;97313.00;5075568;28;20189;-59
2022/07/02 10:20:23;;;;;;;394.02;372.20;;;;;;;21.26;48.91;97312.94;5075366;28;20328;-57
2022/07/02 10:22:49;;;;;;;513.80;486.10;;;;;;;21.06;48.87;97300.59;5075526;28;20161;-56
2022/07/02 10:25:17;;;;;;;522.78;494.02;;;;;;;21.52;49.88;97304.41;5074975;28;20310;-54
2022/07/02 10:27:44;;;;;;;469.60;444.52;;;;;;;21.34;48.52;97299.00;5074772;28;20173;-55
2022/07/02 10:30:11;;;;;;;491.33;464.23;;;;;;;21.89;49.15;97300.25;5074865;28;20177;-57
2022/07/02 10:32:46;;;;;;;303.65;286.73;;;;;;;21.43;49.40;97299.97;5074919;28;20260;-56
2022/07/02 10:35:15;;;;;;;453.73;428.80;;;;;;;22.06;48.58;97310.47;5069481;28;20180;-57
2022/07/02 10:40:09;;;;;;;359.33;339.77;;;;;;;22.03;47.94;97298.47;5070527;28;20240;-54
2022/07/02 10:42:45;;;;;;;517.95;489.85;;;;;;;21.42;49.36;97299.19;5075029;28;20200;-55
2022/07/02 10:45:14;;;;;;;372.27;351.85;;;;;;;21.98;48.31;97296.69;5073954;28;20193;-57
2022/07/02 10:48:05;;;;;;;475.08;450.85;;;;;;;21.53;47.71;97292.66;5056414;28;20177;-55
2022/07/02 10:50:39;;;;;;;315.48;298.25;;;;;;;22.09;47.40;97286.66;5064812;28;20228;-57
2022/07/02 10:53:27;;;;;;;362.35;343.65;;;;;;;22.19;46.80;97280.38;5074929;28;20181;-56
2022/07/02 10:55:55;;;;;;;286.95;272.77;;;;;;;21.66;47.25;97293.06;5057090;28;20196;-58
2022/07/02 10:58:26;;;;;;;455.42;432.55;;;;;;;21.75;47.94;97284.13;5074905;28;20173;-59
2022/07/02 11:00:52;;;;;;;345.63;327.65;;;;;;;21.89;46.45;97281.56;5074954;28;20270;-58
2022/07/02 11:03:21;;;;;;;235.52;224.00;;;;;;;21.45;46.57;97277.28;5068755;28;20185;-55
2022/07/02 11:05:59;;;;;;;313.25;297.67;;;;;;;21.72;47.74;97279.38;5072224;28;20193;-53
2022/07/02 11:08:50;;;;;;;239.80;227.60;;;;;;;22.08;46.59;97274.38;5056145;28;20246;-57
2022/07/02 11:11:42;;;;;;;309.92;294.33;;;;;;;22.07;47.22;97274.69;5074450;28;20201;-58
2022/07/02 11:14:10;;;;;;;324.27;307.60;;;;;;;22.23;46.32;97273.41;5074313;28;20165;-58
2022/07/02 11:16:46;;;;;;;548.92;520.63;;;;;;;22.32;46.97;97279.66;5074164;28;20173;-59
2022/07/02 11:19:12;;;;;;;223.18;212.35;;;;;;;22.15;46.41;97272.16;5074207;28;20534;-58